Time;durP1;ratioP1;P1;durP2;ratioP2;P2;SDS_P1;SDS_P2;PMS_P1;PMS_P2;Temp;Humidity;BMP_temperature;BMP_pressure;BME280_temperature;BME280_humidity;BME280_pressure;Samples;Min_cycle;Max_cycle;Signal;HPM_P1;HPM_P2
2024/03/13 00:00:18;;;;;;;15.13;8.40;;;;;;;;;;4995557;28;20052;-82
2024/03/13 00:02:47;;;;;;;15.70;8.95;;;;;;;;;;5020135;28;20056;-82
2024/03/13 00:05:29;;;;;;;17.77;8.32;;;;;;;;;;5006705;28;20080;-82
2024/03/13 00:08:13;;;;;;;17.52;8.85;;;;;;;;;;5012955;28;20038;-80
2024/03/13 00:10:39;;;;;;;15.52;8.38;;;;;;;;;;5010077;28;20053;-81
2024/03/13 00:13:05;;;;;;;17.98;8.93;;;;;;;;;;5036125;28;20026;-82
2024/03/13 00:15:35;;;;;;;15.52;8.85;;;;;;;;;;5025117;28;20030;-82
2024/03/13 00:18:04;;;;;;;13.90;7.88;;;;;;;;;;5018827;28;20026;-82
2024/03/13 00:20:35;;;;;;;13.77;7.57;;;;;;;;;;5016107;28;20060;-82
2024/03/13 00:23:05;;;;;;;17.02;8.25;;;;;;;;;;4985761;28;20604;-82
2024/03/13 00:25:34;;;;;;;14.23;8.73;;;;;;;;;;5017847;28;20030;-82
2024/03/13 00:28:27;;;;;;;16.90;8.38;;;;;;;;;;5018269;28;20063;-82
2024/03/13 00:30:54;;;;;;;15.80;8.30;;;;;;;;;;5008553;28;20046;-82
2024/03/13 00:33:22;;;;;;;18.58;9.25;;;;;;;;;;4981359;28;20080;-82
2024/03/13 00:35:47;;;;;;;14.80;8.27;;;;;;;;;;5032793;28;20543;-82
2024/03/13 00:38:33;;;;;;;17.15;8.68;;;;;;;;;;4995425;28;20046;-82
2024/03/13 00:41:01;;;;;;;16.70;8.75;;;;;;;;;;5001047;28;20030;-82
2024/03/13 00:43:30;;;;;;;14.85;8.40;;;;;;;;;;4984539;28;20032;-82
2024/03/13 00:45:59;;;;;;;15.95;8.55;;;;;;;;;;4997212;28;20043;-81
2024/03/13 00:48:31;;;;;;;16.17;9.20;;;;;;;;;;4999941;28;20429;-81
2024/03/13 00:51:00;;;;;;;16.98;8.77;;;;;;;;;;5011649;28;20030;-81
2024/03/13 00:53:27;;;;;;;19.23;8.68;;;;;;;;;;4980058;28;20524;-81
2024/03/13 00:55:54;;;;;;;16.48;8.57;;;;;;;;;;5007895;28;20040;-81
2024/03/13 00:58:22;;;;;;;18.20;9.23;;;;;;;;;;5037501;28;20046;-81
2024/03/13 01:00:53;;;;;;;19.77;9.52;;;;;;;;;;5016883;28;20050;-81
2024/03/13 01:03:22;;;;;;;16.48;8.95;;;;;;;;;;5010902;28;20500;-81
2024/03/13 01:05:55;;;;;;;17.42;9.57;;;;;;;;;;5021170;28;20034;-82
2024/03/13 01:08:41;;;;;;;17.17;9.02;;;;;;;;;;5024276;28;20030;-81
2024/03/13 01:11:11;;;;;;;17.15;8.80;;;;;;;;;;5006737;28;20473;-82
2024/03/13 01:13:37;;;;;;;16.57;8.80;;;;;;;;;;4999886;28;20046;-81
2024/03/13 01:16:30;;;;;;;19.15;9.10;;;;;;;;;;5002260;28;20287;-82
2024/03/13 01:19:07;;;;;;;17.35;9.38;;;;;;;;;;5004936;28;20096;-82
2024/03/13 01:21:34;;;;;;;15.60;8.75;;;;;;;;;;4986731;28;20038;-82
2024/03/13 01:24:02;;;;;;;16.30;8.73;;;;;;;;;;5021524;28;20030;-82
2024/03/13 01:26:36;;;;;;;18.80;9.68;;;;;;;;;;5020819;28;20699;-81
2024/03/13 01:32:23;;;;;;;16.15;8.50;;;;;;;;;;5018371;28;20477;-81
2024/03/13 01:35:16;;;;;;;17.85;9.52;;;;;;;;;;5032088;28;20592;-82
2024/03/13 01:38:01;;;;;;;17.15;9.00;;;;;;;;;;5007448;28;20045;-81
2024/03/13 01:57:13;;;;;;;18.27;8.70;;;;;;;;;;5013757;28;20057;-82
2024/03/13 01:59:49;;;;;;;20.40;10.10;;;;;;;;;;5006800;28;20037;-81
2024/03/13 02:02:23;;;;;;;18.40;9.25;;;;;;;;;;4992782;28;20030;-81
2024/03/13 02:04:50;;;;;;;17.08;8.48;;;;;;;;;;4990286;28;20587;-82
2024/03/13 02:07:23;;;;;;;17.70;9.30;;;;;;;;;;5006480;28;20030;-82
2024/03/13 02:09:50;;;;;;;16.48;8.55;;;;;;;;;;5020792;28;20026;-82
2024/03/13 02:12:15;;;;;;;18.70;9.27;;;;;;;;;;5036003;28;20038;-81
2024/03/13 02:18:56;;;;;;;20.80;9.25;;;;;;;;;;5045491;28;20085;-81
2024/03/13 02:25:24;;;;;;;16.15;8.82;;;;;;;;;;5023977;28;20042;-82
2024/03/13 02:28:47;;;;;;;18.90;9.63;;;;;;;;;;5017387;28;20068;-82
2024/03/13 02:35:23;;;;;;;18.17;8.48;;;;;;;;;;4996327;28;20044;-82
2024/03/13 02:38:58;;;;;;;19.73;9.48;;;;;;;;;;5004738;28;20048;-82
2024/03/13 02:42:07;;;;;;;18.83;8.38;;;;;;;;;;5014323;28;20117;-82
2024/03/13 02:45:37;;;;;;;19.23;8.68;;;;;;;;;;5021336;28;20089;-82
2024/03/13 02:48:54;;;;;;;21.35;10.25;;;;;;;;;;5003389;28;20129;-82
2024/03/13 02:52:49;;;;;;;18.33;9.30;;;;;;;;;;4975253;28;20039;-83
2024/03/13 02:56:06;;;;;;;19.17;9.65;;;;;;;;;;4960974;28;20272;-83
2024/03/13 03:00:10;;;;;;;21.73;9.95;;;;;;;;;;4958299;29;20098;-82
2024/03/13 03:06:35;;;;;;;19.25;9.27;;;;;;;;;;4984504;28;20041;-82
2024/03/13 03:10:11;;;;;;;17.20;9.73;;;;;;;;;;4966038;28;20067;-81
2024/03/13 03:20:47;;;;;;;18.90;8.68;;;;;;;;;;4940589;29;19911;-81
2024/03/13 03:27:40;;;;;;;18.60;8.88;;;;;;;;;;4949515;29;20039;-82
2024/03/13 03:30:14;;;;;;;17.58;9.18;;;;;;;;;;4935739;29;20035;-81
2024/03/13 03:36:22;;;;;;;24.15;9.68;;;;;;;;;;5099538;22;20044;-81
2024/03/13 03:38:48;;;;;;;18.23;10.20;;;;;;;;;;5044871;28;20365;-82
2024/03/13 03:41:16;;;;;;;26.08;9.45;;;;;;;;;;5042517;28;20546;-82
2024/03/13 03:43:42;;;;;;;20.70;9.93;;;;;;;;;;5042335;28;20131;-83
2024/03/13 03:46:12;;;;;;;22.70;11.07;;;;;;;;;;5077854;28;20265;-82
2024/03/13 03:48:40;;;;;;;22.35;10.15;;;;;;;;;;5055162;28;20048;-81
2024/03/13 03:51:16;;;;;;;20.35;9.15;;;;;;;;;;5043168;28;20082;-82
2024/03/13 03:53:43;;;;;;;19.30;9.38;;;;;;;;;;5083127;28;20070;-80
2024/03/13 03:56:12;;;;;;;17.50;9.10;;;;;;;;;;5043702;28;20373;-82
2024/03/13 03:58:38;;;;;;;20.15;9.93;;;;;;;;;;5035485;28;20087;-80
2024/03/13 04:01:06;;;;;;;19.10;10.38;;;;;;;;;;5043136;28;20032;-83
2024/03/13 04:03:34;;;;;;;21.83;10.68;;;;;;;;;;5040577;28;20404;-82
2024/03/13 04:06:03;;;;;;;23.20;10.25;;;;;;;;;;5069826;28;20029;-82
2024/03/13 04:08:30;;;;;;;23.25;10.73;;;;;;;;;;5050610;28;20510;-82
2024/03/13 04:10:56;;;;;;;20.63;9.70;;;;;;;;;;5063832;28;20025;-82
2024/03/13 04:13:23;;;;;;;27.08;9.18;;;;;;;;;;5042835;28;20052;-82
2024/03/13 04:15:56;;;;;;;17.20;9.30;;;;;;;;;;5058533;28;20133;-82
2024/03/13 04:18:24;;;;;;;21.88;10.10;;;;;;;;;;5038689;28;20518;-83
2024/03/13 04:20:50;;;;;;;20.73;9.90;;;;;;;;;;5044931;28;20037;-82
2024/03/13 04:23:16;;;;;;;20.75;9.82;;;;;;;;;;5054474;28;20051;-82
2024/03/13 04:26:03;;;;;;;23.13;12.00;;;;;;;;;;5069186;28;20033;-81
2024/03/13 04:28:33;;;;;;;22.08;10.50;;;;;;;;;;5051851;28;20439;-80
2024/03/13 04:31:01;;;;;;;18.17;9.40;;;;;;;;;;5058719;28;20036;-80
2024/03/13 04:34:01;;;;;;;23.80;10.05;;;;;;;;;;5060140;28;20045;-81
2024/03/13 04:36:27;;;;;;;21.10;9.45;;;;;;;;;;5058263;28;20041;-80
2024/03/13 04:39:21;;;;;;;19.13;8.77;;;;;;;;;;5059036;28;20073;-81
2024/03/13 04:41:51;;;;;;;18.08;9.75;;;;;;;;;;5039921;28;20036;-83
2024/03/13 04:44:20;;;;;;;20.65;9.88;;;;;;;;;;5064001;28;20058;-82
2024/03/13 04:46:45;;;;;;;18.20;9.75;;;;;;;;;;5075575;28;20531;-82
2024/03/13 04:49:11;;;;;;;17.40;8.88;;;;;;;;;;5079593;28;20059;-82
2024/03/13 04:51:40;;;;;;;21.40;10.25;;;;;;;;;;5047307;28;20059;-82
2024/03/13 04:54:09;;;;;;;19.67;9.45;;;;;;;;;;5064269;28;20041;-81
2024/03/13 04:56:34;;;;;;;18.13;8.85;;;;;;;;;;5043246;28;20025;-82
2024/03/13 04:59:02;;;;;;;16.90;9.18;;;;;;;;;;5044621;28;20040;-81
2024/03/13 05:01:27;;;;;;;16.42;8.63;;;;;;;;;;5031155;28;20067;-82
2024/03/13 05:03:54;;;;;;;21.55;9.88;;;;;;;;;;5063117;28;20024;-82
2024/03/13 05:06:23;;;;;;;20.98;9.57;;;;;;;;;;5050322;28;20063;-81
2024/03/13 05:08:48;;;;;;;;;;;;;;;;;;5065150;28;20074;-81
2024/03/13 05:11:22;;;;;;;19.55;9.73;;;;;;;;;;5069757;28;19909;-81
2024/03/13 05:13:50;;;;;;;20.42;10.30;;;;;;;;;;5045515;28;20028;-82
2024/03/13 05:16:17;;;;;;;20.15;9.70;;;;;;;;;;5058484;28;20039;-82
2024/03/13 05:18:50;;;;;;;21.25;10.10;;;;;;;;;;5059509;28;20040;-82
2024/03/13 05:21:18;;;;;;;21.10;10.07;;;;;;;;;;5091397;28;20017;-82
2024/03/13 05:23:50;;;;;;;22.92;10.98;;;;;;;;;;5105262;22;20044;-82
2024/03/13 05:26:16;;;;;;;26.77;11.20;;;;;;;;;;5049658;28;20052;-82
2024/03/13 05:28:43;;;;;;;22.10;11.23;;;;;;;;;;5037415;28;20093;-82
2024/03/13 05:39:38;;;;;;;24.63;11.55;;;;;;;;;;5034845;28;20041;-82
2024/03/13 05:43:06;;;;;;;23.50;11.20;;;;;;;;;;5027855;28;20064;-82
2024/03/13 05:46:07;;;;;;;23.40;10.70;;;;;;;;;;5063554;28;20055;-83
2024/03/13 05:48:33;;;;;;;25.02;11.48;;;;;;;;;;5024978;28;20037;-83
2024/03/13 05:50:58;;;;;;;26.15;12.00;;;;;;;;;;5061771;28;20040;-83
2024/03/13 05:53:28;;;;;;;29.63;11.63;;;;;;;;;;5064355;28;20025;-81
2024/03/13 05:55:55;;;;;;;22.40;11.60;;;;;;;;;;5028170;28;20041;-83
2024/03/13 05:58:24;;;;;;;29.10;12.25;;;;;;;;;;5030941;28;20036;-81
2024/03/13 06:01:04;;;;;;;21.85;11.57;;;;;;;;;;5054594;28;20047;-83
2024/03/13 06:03:30;;;;;;;30.52;12.38;;;;;;;;;;5057203;28;20033;-83
2024/03/13 06:06:00;;;;;;;24.98;12.00;;;;;;;;;;5059438;28;20480;-82
2024/03/13 06:08:37;;;;;;;27.67;13.05;;;;;;;;;;5042873;28;20030;-82
2024/03/13 06:11:05;;;;;;;27.33;13.63;;;;;;;;;;5042113;28;20029;-83
2024/03/13 06:13:36;;;;;;;28.05;13.27;;;;;;;;;;5043378;28;20045;-83
2024/03/13 06:16:06;;;;;;;25.70;12.02;;;;;;;;;;5041387;28;20033;-83
2024/03/13 06:18:34;;;;;;;25.10;13.50;;;;;;;;;;5037313;28;20472;-82
2024/03/13 06:21:00;;;;;;;27.08;13.13;;;;;;;;;;5040215;28;20048;-83
2024/03/13 06:23:29;;;;;;;33.33;13.93;;;;;;;;;;5062798;28;20029;-82
2024/03/13 06:25:57;;;;;;;24.23;12.25;;;;;;;;;;5059796;28;20034;-83
2024/03/13 06:31:08;;;;;;;34.45;13.60;;;;;;;;;;5054745;28;20025;-82
2024/03/13 06:33:36;;;;;;;27.67;12.57;;;;;;;;;;5060909;28;20103;-82
2024/03/13 06:36:02;;;;;;;44.35;17.42;;;;;;;;;;5029197;28;20025;-81
2024/03/13 06:38:29;;;;;;;28.83;13.02;;;;;;;;;;5020912;28;20033;-81
2024/03/13 06:40:56;;;;;;;29.08;13.20;;;;;;;;;;5036166;28;20152;-82
2024/03/13 06:43:23;;;;;;;29.75;13.70;;;;;;;;;;5036462;28;20067;-82
2024/03/13 06:45:52;;;;;;;30.02;13.98;;;;;;;;;;5022880;28;20045;-80
2024/03/13 06:48:20;;;;;;;31.42;13.75;;;;;;;;;;5035063;28;20026;-82
2024/03/13 06:50:46;;;;;;;35.13;14.57;;;;;;;;;;5052311;28;20052;-83
2024/03/13 06:53:13;;;;;;;31.58;13.10;;;;;;;;;;5022626;28;20097;-82
2024/03/13 06:55:42;;;;;;;27.88;12.50;;;;;;;;;;5015797;28;20120;-82
2024/03/13 06:58:11;;;;;;;33.47;14.77;;;;;;;;;;5036890;28;20072;-82
2024/03/13 07:00:41;;;;;;;40.17;16.48;;;;;;;;;;5011627;28;20094;-83
2024/03/13 07:03:30;;;;;;;28.95;13.55;;;;;;;;;;5025777;28;20021;-83
2024/03/13 07:06:00;;;;;;;31.27;14.18;;;;;;;;;;5053829;28;20049;-83
2024/03/13 07:08:31;;;;;;;33.28;13.32;;;;;;;;;;5040532;28;20033;-83
2024/03/13 07:11:07;;;;;;;29.48;14.60;;;;;;;;;;5039431;28;20079;-83
2024/03/13 07:13:34;;;;;;;26.23;12.55;;;;;;;;;;5039813;28;20048;-82
2024/03/13 07:16:02;;;;;;;;;;;;;;;;;;5025020;28;20044;-83
2024/03/13 07:18:30;;;;;;;29.23;13.52;;;;;;;;;;5038818;28;20263;-83
2024/03/13 07:20:58;;;;;;;27.50;13.95;;;;;;;;;;5018657;28;20054;-83
2024/03/13 07:23:26;;;;;;;33.20;15.13;;;;;;;;;;5038109;28;20033;-83
2024/03/13 07:25:56;;;;;;;33.22;14.57;;;;;;;;;;5054499;28;20033;-83
2024/03/13 07:28:48;;;;;;;35.65;15.23;;;;;;;;;;5056931;28;20032;-81
2024/03/13 07:31:20;;;;;;;33.15;15.25;;;;;;;;;;5007097;28;20127;-82
2024/03/13 07:39:55;;;;;;;31.88;14.50;;;;;;;;;;4957800;29;20056;-83
2024/03/13 07:42:25;;;;;;;35.93;14.87;;;;;;;;;;4948429;29;20103;-83
2024/03/13 07:44:56;;;;;;;34.72;15.45;;;;;;;;;;4941324;29;20040;-83
2024/03/13 07:47:31;;;;;;;30.02;14.10;;;;;;;;;;4957239;28;20031;-83
2024/03/13 07:50:05;;;;;;;31.95;14.27;;;;;;;;;;4941124;29;20032;-83
2024/03/13 07:53:02;;;;;;;36.58;14.75;;;;;;;;;;4954541;29;20039;-83
2024/03/13 07:55:31;;;;;;;33.80;15.07;;;;;;;;;;4922892;29;20016;-83
2024/03/13 07:58:25;;;;;;;30.80;14.25;;;;;;;;;;4964574;29;20043;-84
2024/03/13 08:01:17;;;;;;;32.90;13.70;;;;;;;;;;4952159;29;20480;-83
2024/03/13 08:03:46;;;;;;;32.58;14.88;;;;;;;;;;4954788;29;20067;-84
2024/03/13 08:06:14;;;;;;;36.65;15.57;;;;;;;;;;4936206;29;20051;-83
2024/03/13 08:08:43;;;;;;;;;;;;;;;;;;4937640;29;20138;-84
2024/03/13 08:11:31;;;;;;;33.10;14.25;;;;;;;;;;4968882;28;19938;-84
2024/03/13 08:14:22;;;;;;;33.72;14.05;;;;;;;;;;4956221;28;20027;-84
2024/03/13 08:16:50;;;;;;;31.75;15.05;;;;;;;;;;4971928;28;20055;-83
2024/03/13 08:19:18;;;;;;;34.83;15.95;;;;;;;;;;4924075;29;20032;-84
2024/03/13 08:21:49;;;;;;;35.55;14.27;;;;;;;;;;4922089;28;20100;-84
2024/03/13 15:36:36;;;;;;;6.75;2.67;;;;;;;;;;6125401;23;20029;-83
2024/03/13 15:39:05;;;;;;;6.07;3.22;;;;;;;;;;4932923;29;20389;-82
2024/03/13 15:41:43;;;;;;;11.40;3.42;;;;;;;;;;4930434;29;20116;-82
2024/03/13 15:44:14;;;;;;;6.10;2.83;;;;;;;;;;4920667;29;20059;-82
2024/03/13 15:46:52;;;;;;;6.28;2.97;;;;;;;;;;4917769;29;20059;-82
2024/03/13 15:49:21;;;;;;;10.05;4.80;;;;;;;;;;4891874;29;20040;-82
2024/03/13 16:15:21;;;;;;;5.55;2.35;;;;;;;;;;4968750;28;20043;-82
2024/03/13 16:17:48;;;;;;;4.53;2.60;;;;;;;;;;4946479;28;20113;-82
2024/03/13 16:20:14;;;;;;;8.13;3.53;;;;;;;;;;4937924;28;20026;-82
2024/03/13 16:22:45;;;;;;;12.07;3.75;;;;;;;;;;4935723;28;20027;-82
2024/03/13 16:25:19;;;;;;;9.25;3.13;;;;;;;;;;4956937;28;20028;-82
2024/03/13 16:27:58;;;;;;;7.53;3.50;;;;;;;;;;4966264;28;20011;-82
2024/03/13 16:30:24;;;;;;;8.02;3.10;;;;;;;;;;4934230;29;20104;-82
2024/03/13 16:32:49;;;;;;;8.18;4.38;;;;;;;;;;4939939;29;20537;-82
2024/03/13 16:35:15;;;;;;;7.35;3.25;;;;;;;;;;4949600;28;20030;-82
2024/03/13 16:37:45;;;;;;;7.72;3.40;;;;;;;;;;4950936;29;20059;-82
2024/03/13 16:40:17;;;;;;;7.63;3.50;;;;;;;;;;4937471;28;20039;-82
2024/03/13 16:42:44;;;;;;;13.13;3.97;;;;;;;;;;4949409;29;20103;-82
2024/03/13 16:45:17;;;;;;;7.47;3.90;;;;;;;;;;4938317;28;20023;-82
2024/03/13 16:47:46;;;;;;;10.57;4.57;;;;;;;;;;4935132;29;20058;-82
2024/03/13 16:50:15;;;;;;;11.05;5.20;;;;;;;;;;4940660;28;20063;-82
2024/03/13 16:52:42;;;;;;;10.43;4.90;;;;;;;;;;4945856;29;20034;-82
2024/03/13 16:55:11;;;;;;;9.40;4.88;;;;;;;;;;4942960;28;20050;-82
2024/03/13 16:57:38;;;;;;;11.93;4.50;;;;;;;;;;4934162;28;20057;-82
2024/03/13 17:00:09;;;;;;;7.53;4.55;;;;;;;;;;4933467;28;20058;-82
2024/03/13 17:02:45;;;;;;;12.00;4.82;;;;;;;;;;4935513;28;20046;-82
2024/03/13 17:05:11;;;;;;;11.27;5.50;;;;;;;;;;4942564;28;20027;-82
2024/03/13 17:07:39;;;;;;;8.77;4.32;;;;;;;;;;4959847;28;20042;-83
2024/03/13 17:10:06;;;;;;;8.98;4.45;;;;;;;;;;4949150;29;20123;-82
2024/03/13 17:12:32;;;;;;;9.00;4.38;;;;;;;;;;4941870;28;20038;-82
2024/03/13 17:17:50;;;;;;;12.35;4.93;;;;;;;;;;5064990;23;20448;-82
2024/03/13 17:20:24;;;;;;;8.45;4.40;;;;;;;;;;4986519;28;20030;-82
2024/03/13 17:22:55;;;;;;;14.02;4.68;;;;;;;;;;4987745;28;20049;-83
2024/03/13 17:25:23;;;;;;;7.88;4.20;;;;;;;;;;4986717;28;20048;-83
2024/03/13 17:27:49;;;;;;;8.43;4.10;;;;;;;;;;4972882;28;20034;-82
2024/03/13 17:30:15;;;;;;;10.48;4.93;;;;;;;;;;4957760;28;20296;-83
2024/03/13 17:32:42;;;;;;;10.35;5.82;;;;;;;;;;4970658;28;20045;-82
2024/03/13 17:35:12;;;;;;;9.13;4.85;;;;;;;;;;4997762;28;20064;-81
2024/03/13 17:37:39;;;;;;;11.38;4.57;;;;;;;;;;4964925;28;20049;-81
2024/03/13 17:40:07;;;;;;;8.18;4.10;;;;;;;;;;4967068;28;20039;-81
2024/03/13 17:42:33;;;;;;;11.10;4.78;;;;;;;;;;4964050;28;20466;-81
2024/03/13 17:44:58;;;;;;;7.82;4.55;;;;;;;;;;4965519;28;20049;-81
2024/03/13 17:47:24;;;;;;;7.97;4.43;;;;;;;;;;4963271;28;20478;-80
2024/03/13 17:49:50;;;;;;;8.68;4.45;;;;;;;;;;4979645;28;20088;-82
2024/03/13 17:52:17;;;;;;;11.32;5.00;;;;;;;;;;4978494;28;20038;-82
2024/03/13 17:54:43;;;;;;;11.35;5.15;;;;;;;;;;4979660;28;20030;-82
2024/03/13 17:57:09;;;;;;;10.27;4.78;;;;;;;;;;4977975;28;20130;-81
2024/03/13 17:59:35;;;;;;;8.63;4.63;;;;;;;;;;4978430;28;20029;-80
2024/03/13 18:02:03;;;;;;;9.85;4.40;;;;;;;;;;4966598;28;21634;-81
2024/03/13 18:04:29;;;;;;;9.25;4.40;;;;;;;;;;4991239;28;20077;-80
2024/03/13 18:06:55;;;;;;;10.68;4.75;;;;;;;;;;4974695;28;20060;-81
2024/03/13 18:09:21;;;;;;;11.73;5.03;;;;;;;;;;4981636;28;20031;-82
2024/03/13 18:11:47;;;;;;;10.60;5.10;;;;;;;;;;4980309;28;20109;-82
2024/03/13 18:14:15;;;;;;;10.68;5.63;;;;;;;;;;5006817;28;20033;-81
2024/03/13 18:16:42;;;;;;;10.32;4.30;;;;;;;;;;4993327;28;20026;-81
2024/03/13 18:19:08;;;;;;;11.68;5.28;;;;;;;;;;4987167;28;20098;-81
2024/03/13 18:21:35;;;;;;;9.60;5.10;;;;;;;;;;5002274;28;20029;-81
2024/03/13 18:24:02;;;;;;;9.75;4.75;;;;;;;;;;4997494;28;20032;-82
2024/03/13 18:26:31;;;;;;;12.15;5.05;;;;;;;;;;5002573;28;20057;-82
2024/03/13 18:28:58;;;;;;;9.30;4.93;;;;;;;;;;4968187;28;20038;-82
2024/03/13 18:31:24;;;;;;;10.95;5.22;;;;;;;;;;4973476;28;20060;-82
2024/03/13 18:33:53;;;;;;;9.15;4.75;;;;;;;;;;5004651;28;20029;-82
2024/03/13 18:36:18;;;;;;;9.60;4.88;;;;;;;;;;4978484;28;20061;-82
2024/03/13 18:38:48;;;;;;;11.68;5.50;;;;;;;;;;4975995;28;20052;-82
2024/03/13 18:41:23;;;;;;;13.65;5.13;;;;;;;;;;4979380;28;20125;-82
2024/03/13 18:44:00;;;;;;;8.88;5.28;;;;;;;;;;4984431;28;20044;-82
2024/03/13 18:46:55;;;;;;;11.02;4.80;;;;;;;;;;4999977;28;20660;-82
2024/03/13 18:49:25;;;;;;;19.42;6.70;;;;;;;;;;4988376;28;20085;-82
2024/03/13 18:51:57;;;;;;;19.23;7.30;;;;;;;;;;4997442;28;20048;-82
2024/03/13 18:54:34;;;;;;;11.88;5.47;;;;;;;;;;4978240;28;20612;-83
2024/03/13 18:57:36;;;;;;;9.73;5.05;;;;;;;;;;4998746;28;20026;-83
2024/03/13 19:00:17;;;;;;;7.93;4.47;;;;;;;;;;4995999;28;20034;-82
2024/03/13 19:03:18;;;;;;;7.93;4.70;;;;;;;;;;4999951;28;20070;-82
2024/03/13 19:06:10;;;;;;;14.68;5.18;;;;;;;;;;5019982;28;20036;-81
2024/03/13 19:08:46;;;;;;;12.27;4.75;;;;;;;;;;4973339;28;20057;-82
2024/03/13 19:11:28;;;;;;;9.63;4.75;;;;;;;;;;5036599;28;20021;-82
2024/03/13 19:13:54;;;;;;;10.43;4.60;;;;;;;;;;4982241;28;20053;-82
2024/03/13 19:17:17;;;;;;;10.73;4.55;;;;;;;;;;5046186;28;20044;-82
2024/03/13 19:20:54;;;;;;;8.10;4.50;;;;;;;;;;5002208;28;20034;-81
2024/03/13 19:23:22;;;;;;;8.02;5.05;;;;;;;;;;4981395;28;20049;-82
2024/03/13 19:25:53;;;;;;;12.07;5.97;;;;;;;;;;4966131;28;20041;-82
2024/03/13 19:28:52;;;;;;;9.80;4.90;;;;;;;;;;5009174;28;20018;-82
2024/03/13 19:31:45;;;;;;;10.20;4.45;;;;;;;;;;4988723;28;20034;-82
2024/03/13 19:34:18;;;;;;;8.98;4.90;;;;;;;;;;5019272;23;20137;-82
2024/03/13 19:36:44;;;;;;;9.38;4.90;;;;;;;;;;4983682;28;20058;-82
2024/03/13 19:39:09;;;;;;;7.80;4.30;;;;;;;;;;4962727;28;20520;-81
2024/03/13 19:41:35;;;;;;;10.13;4.82;;;;;;;;;;4971297;28;20117;-82
2024/03/13 19:44:02;;;;;;;8.40;4.88;;;;;;;;;;4961276;28;20031;-82
2024/03/13 19:46:27;;;;;;;12.88;5.32;;;;;;;;;;4955310;29;20051;-82
2024/03/13 19:48:57;;;;;;;8.48;4.07;;;;;;;;;;4958082;29;20094;-82
2024/03/13 19:51:25;;;;;;;8.65;4.45;;;;;;;;;;4952968;28;20049;-83
2024/03/13 19:53:51;;;;;;;11.57;4.97;;;;;;;;;;4966727;28;20106;-82
2024/03/13 19:56:17;;;;;;;8.63;4.20;;;;;;;;;;4977068;28;20088;-82
2024/03/13 19:58:42;;;;;;;7.22;4.20;;;;;;;;;;4951838;28;20034;-82
2024/03/13 20:01:09;;;;;;;7.18;3.92;;;;;;;;;;4967799;28;20081;-83
2024/03/13 20:03:35;;;;;;;8.02;4.03;;;;;;;;;;4963748;28;20030;-83
2024/03/13 20:06:00;;;;;;;7.38;4.07;;;;;;;;;;4948737;29;20024;-82
2024/03/13 20:08:26;;;;;;;9.35;4.32;;;;;;;;;;4978481;28;20027;-83
2024/03/13 20:10:52;;;;;;;9.25;4.20;;;;;;;;;;4955083;28;20030;-83
2024/03/13 20:13:17;;;;;;;9.25;4.43;;;;;;;;;;4965729;28;20049;-84
2024/03/13 20:15:44;;;;;;;9.05;4.68;;;;;;;;;;4940237;29;20034;-83
2024/03/13 20:18:10;;;;;;;9.98;4.78;;;;;;;;;;4966801;28;20041;-82
2024/03/13 20:20:35;;;;;;;8.57;4.70;;;;;;;;;;4966677;28;20554;-84
2024/03/13 20:23:01;;;;;;;9.38;4.63;;;;;;;;;;4939047;28;20039;-83
2024/03/13 20:25:27;;;;;;;8.40;4.80;;;;;;;;;;4943558;28;20038;-83
2024/03/13 20:27:53;;;;;;;9.18;4.95;;;;;;;;;;4968016;28;20049;-83
2024/03/13 20:30:18;;;;;;;9.75;5.35;;;;;;;;;;4957856;28;20529;-81
2024/03/13 20:32:44;;;;;;;9.60;4.78;;;;;;;;;;4951137;28;20042;-82
2024/03/13 20:35:10;;;;;;;8.00;4.68;;;;;;;;;;4932004;29;20054;-82
2024/03/13 20:37:36;;;;;;;7.38;4.55;;;;;;;;;;4955534;28;20092;-82
2024/03/13 20:40:05;;;;;;;10.88;5.63;;;;;;;;;;4941136;28;20047;-81
2024/03/13 20:42:30;;;;;;;8.60;4.80;;;;;;;;;;4959568;28;20027;-81
2024/03/13 20:44:57;;;;;;;10.35;5.10;;;;;;;;;;4954936;28;20461;-82
2024/03/13 20:47:22;;;;;;;8.80;5.07;;;;;;;;;;4937383;28;20034;-82
2024/03/13 20:49:49;;;;;;;12.27;5.05;;;;;;;;;;4960358;28;20487;-82
2024/03/13 20:52:15;;;;;;;11.88;5.05;;;;;;;;;;4936019;28;20041;-81
2024/03/13 20:54:40;;;;;;;8.57;4.80;;;;;;;;;;4958921;28;20465;-82
2024/03/13 20:57:06;;;;;;;11.00;5.10;;;;;;;;;;4965161;28;20044;-81
2024/03/13 20:59:31;;;;;;;11.73;4.43;;;;;;;;;;4971415;28;20037;-82
2024/03/13 21:01:57;;;;;;;9.55;5.35;;;;;;;;;;4962282;29;20541;-80
2024/03/13 21:04:23;;;;;;;11.38;4.82;;;;;;;;;;4946707;29;20062;-80
2024/03/13 21:06:52;;;;;;;8.32;3.85;;;;;;;;;;4966414;28;20039;-82
2024/03/13 21:09:19;;;;;;;9.48;4.78;;;;;;;;;;4945886;28;20035;-80
2024/03/13 21:11:46;;;;;;;8.48;4.80;;;;;;;;;;4970251;28;20033;-81
2024/03/13 21:14:11;;;;;;;9.02;4.43;;;;;;;;;;4973735;28;20051;-81
2024/03/13 21:16:38;;;;;;;11.90;4.53;;;;;;;;;;4936002;29;20035;-83
2024/03/13 21:19:03;;;;;;;8.25;4.25;;;;;;;;;;4943114;29;20197;-81
2024/03/13 21:21:29;;;;;;;7.35;4.43;;;;;;;;;;4958552;28;20068;-82
2024/03/13 21:23:55;;;;;;;7.85;4.50;;;;;;;;;;4974053;28;20493;-82
2024/03/13 21:26:21;;;;;;;13.50;4.22;;;;;;;;;;4951750;28;20069;-82
2024/03/13 21:28:49;;;;;;;11.05;5.03;;;;;;;;;;4945283;28;20050;-82
2024/03/13 21:31:15;;;;;;;12.57;4.57;;;;;;;;;;4934708;28;20551;-82
2024/03/13 21:33:40;;;;;;;10.18;4.60;;;;;;;;;;4948282;28;20022;-81
2024/03/13 21:36:06;;;;;;;8.27;3.92;;;;;;;;;;4949069;28;20086;-81
2024/03/13 21:38:32;;;;;;;9.50;4.32;;;;;;;;;;4955888;28;20041;-80
2024/03/13 21:40:57;;;;;;;9.20;4.70;;;;;;;;;;4954643;28;20034;-82
2024/03/13 21:43:23;;;;;;;12.25;5.03;;;;;;;;;;4950551;28;20034;-81
2024/03/13 21:45:49;;;;;;;13.32;5.13;;;;;;;;;;4968803;28;20035;-82
2024/03/13 21:48:14;;;;;;;12.65;5.15;;;;;;;;;;4957972;29;20194;-81
2024/03/13 21:50:42;;;;;;;9.50;4.35;;;;;;;;;;4954406;28;20030;-82
2024/03/13 21:53:10;;;;;;;14.10;4.60;;;;;;;;;;4956376;28;20023;-82
2024/03/13 21:55:36;;;;;;;9.10;4.90;;;;;;;;;;4959744;29;20328;-81
2024/03/13 21:58:02;;;;;;;11.10;5.13;;;;;;;;;;4938632;29;20034;-83
2024/03/13 22:00:28;;;;;;;9.55;4.53;;;;;;;;;;4953103;28;20034;-81
2024/03/13 22:02:54;;;;;;;9.63;4.68;;;;;;;;;;4963772;28;20034;-82
2024/03/13 22:05:20;;;;;;;10.73;4.43;;;;;;;;;;4969314;28;20049;-81
2024/03/13 22:07:46;;;;;;;6.65;4.00;;;;;;;;;;4971542;28;20026;-82
2024/03/13 22:10:12;;;;;;;8.05;4.60;;;;;;;;;;4953363;28;20554;-80
2024/03/13 22:12:37;;;;;;;7.70;4.20;;;;;;;;;;4967397;28;20482;-81
2024/03/13 22:15:05;;;;;;;9.93;4.50;;;;;;;;;;4945034;28;20043;-82
2024/03/13 22:17:33;;;;;;;8.55;4.07;;;;;;;;;;4960274;28;20149;-81
2024/03/13 22:19:59;;;;;;;9.18;4.28;;;;;;;;;;4968286;28;20034;-81
2024/03/13 22:22:27;;;;;;;10.88;4.90;;;;;;;;;;4951433;28;20054;-81
2024/03/13 22:24:53;;;;;;;10.70;5.13;;;;;;;;;;4963854;28;20039;-81
2024/03/13 22:27:19;;;;;;;10.85;4.90;;;;;;;;;;4953641;29;20469;-82
2024/03/13 22:29:45;;;;;;;9.48;4.47;;;;;;;;;;4946286;28;20062;-81
2024/03/13 22:32:11;;;;;;;11.90;5.32;;;;;;;;;;4977283;28;20041;-81
2024/03/13 22:34:37;;;;;;;7.78;4.50;;;;;;;;;;4942301;29;20543;-82
2024/03/13 22:37:03;;;;;;;10.88;5.25;;;;;;;;;;4979156;28;20038;-83
2024/03/13 22:39:28;;;;;;;8.23;5.05;;;;;;;;;;4954205;28;20043;-82
2024/03/13 22:41:54;;;;;;;12.23;5.35;;;;;;;;;;4960135;28;20030;-80
2024/03/13 22:44:20;;;;;;;10.38;5.20;;;;;;;;;;4950336;28;20086;-82
2024/03/13 22:46:46;;;;;;;8.32;4.53;;;;;;;;;;4953918;28;20093;-82
2024/03/13 22:49:11;;;;;;;11.93;5.63;;;;;;;;;;4941864;28;20050;-81
2024/03/13 22:51:37;;;;;;;10.02;5.45;;;;;;;;;;4950494;28;20039;-80
2024/03/13 22:54:03;;;;;;;11.63;5.40;;;;;;;;;;4949684;28;20070;-83
2024/03/13 22:56:28;;;;;;;10.40;5.22;;;;;;;;;;4968251;28;20078;-80
2024/03/13 22:58:54;;;;;;;12.05;5.85;;;;;;;;;;4964390;28;20594;-82
2024/03/13 23:01:19;;;;;;;10.77;5.93;;;;;;;;;;4972098;28;20041;-82
2024/03/13 23:03:45;;;;;;;12.68;6.10;;;;;;;;;;4951606;28;20031;-82
2024/03/13 23:06:13;;;;;;;13.02;5.93;;;;;;;;;;4958972;28;20045;-81
2024/03/13 23:08:39;;;;;;;13.40;6.75;;;;;;;;;;4970580;28;20032;-81
2024/03/13 23:11:06;;;;;;;14.25;6.75;;;;;;;;;;4964296;28;20031;-81
2024/03/13 23:13:32;;;;;;;17.92;6.80;;;;;;;;;;4956809;28;20042;-82
2024/03/13 23:15:57;;;;;;;12.02;5.88;;;;;;;;;;4957586;28;20041;-81
2024/03/13 23:18:27;;;;;;;14.05;6.65;;;;;;;;;;4974795;28;20035;-82
2024/03/13 23:20:53;;;;;;;13.85;6.50;;;;;;;;;;4945818;29;20058;-81
2024/03/13 23:23:20;;;;;;;11.75;6.32;;;;;;;;;;4963156;28;20117;-81
2024/03/13 23:25:45;;;;;;;12.55;6.47;;;;;;;;;;4953664;29;20093;-80
2024/03/13 23:28:11;;;;;;;16.13;6.95;;;;;;;;;;4968244;28;20031;-80
2024/03/13 23:30:37;;;;;;;12.98;6.47;;;;;;;;;;4929370;28;20089;-80
2024/03/13 23:33:02;;;;;;;13.65;6.35;;;;;;;;;;4949135;28;20094;-81
2024/03/13 23:35:29;;;;;;;13.20;7.85;;;;;;;;;;4930747;29;20043;-82
2024/03/13 23:37:55;;;;;;;17.00;8.18;;;;;;;;;;4913716;29;20067;-80
2024/03/13 23:40:21;;;;;;;17.92;7.13;;;;;;;;;;4997690;28;20450;-81
2024/03/13 23:42:48;;;;;;;18.83;7.10;;;;;;;;;;4947804;28;20039;-80
2024/03/13 23:45:14;;;;;;;12.52;6.43;;;;;;;;;;4914828;28;20035;-82